Terminal Aerodrome Forecast
Issued by NWS

Home | Current Version | Previous Version | Text Only | Print | Product List | Glossary Off
Versions: 1 2 3 4 5 6 7 8 9 10 11 12 13 14 15 16 17 18

525
FTUS43 KBIS 071125
TAFDIK
TAF
KDIK 071125Z 0712/0812 30030G42KT P6SM VCSH OVC040
     FM071400 31031G43KT P6SM -SHSN OVC020
     FM071700 31034G48KT P6SM OVC025
     FM072100 31036G50KT P6SM BKN035
     FM080000 32026G36KT P6SM BKN035
     FM080700 32019G27KT P6SM SCT100=

USA.gov is the U.S. government's official web portal to all federal, state and local government web resources and services.